createdAt,value
2022-09-07T00:01:33.308Z,97875.56
2022-09-07T00:04:02.170Z,97873.97
2022-09-07T00:06:31.343Z,97882.31
2022-09-07T00:09:00.630Z,97888.41
2022-09-07T00:11:31.050Z,97893.72
2022-09-07T00:14:02.161Z,97886.91
2022-09-07T00:16:32.736Z,97886.31
2022-09-07T00:19:05.242Z,97879.94
2022-09-07T00:21:35.077Z,97882.81
2022-09-07T00:24:04.508Z,97881.50
2022-09-07T00:26:33.959Z,97874.06
2022-09-07T00:29:06.397Z,97863.72
2022-09-07T00:31:35.403Z,97866.84
2022-09-07T00:34:05.417Z,97870.28
2022-09-07T00:36:35.264Z,97867.63
2022-09-07T00:39:04.045Z,97869.00
2022-09-07T00:41:33.066Z,97868.69
2022-09-07T00:45:03.643Z,97861.28
2022-09-07T00:47:45.505Z,97861.28
2022-09-07T00:50:23.355Z,97862.59
2022-09-07T00:53:00.453Z,97864.22
2022-09-07T00:55:32.539Z,97859.69
2022-09-07T00:58:02.045Z,97855.19
2022-09-07T01:00:36.194Z,97862.31
2022-09-07T01:03:07.656Z,97865.78
2022-09-07T01:05:43.156Z,97854.38
2022-09-07T01:08:14.760Z,97853.34
2022-09-07T01:10:43.924Z,97857.34
2022-09-07T01:13:12.555Z,97855.47
2022-09-07T01:15:54.054Z,97851.19
2022-09-07T01:18:36.095Z,97853.22
2022-09-07T01:21:27.121Z,97858.63
2022-09-07T01:24:43.712Z,97853.63
2022-09-07T01:28:06.895Z,97852.06
2022-09-07T01:30:40.104Z,97858.13
2022-09-07T01:33:32.654Z,97867.34
2022-09-07T01:36:17.830Z,97853.28
2022-09-07T01:38:52.533Z,97847.41
2022-09-07T01:41:30.722Z,97841.31
2022-09-07T01:44:07.959Z,97841.31
2022-09-07T01:46:44.674Z,97844.50
2022-09-07T01:49:21.430Z,97844.19
2022-09-07T01:51:57.922Z,97850.72
2022-09-07T01:54:34.240Z,97858.63
2022-09-07T01:57:12.595Z,97852.75
2022-09-07T01:59:49.182Z,97854.91
2022-09-07T02:02:26.597Z,97858.69
2022-09-07T02:05:01.578Z,97859.72
2022-09-07T02:07:41.895Z,97857.63
2022-09-07T02:10:18.118Z,97856.50
2022-09-07T02:12:53.803Z,97851.13
2022-09-07T02:15:30.188Z,97847.44
2022-09-07T02:18:06.545Z,97844.75
2022-09-07T02:20:39.790Z,97838.06
2022-09-07T02:23:15.770Z,97839.13
2022-09-07T02:25:52.503Z,97841.53
2022-09-07T02:28:29.395Z,97840.47
2022-09-07T02:31:00.583Z,97838.63
2022-09-07T02:33:30.703Z,97836.72
2022-09-07T02:36:02.177Z,97838.50
2022-09-07T02:38:31.727Z,97839.03
2022-09-07T02:41:03.522Z,97846.50
2022-09-07T02:43:34.377Z,97845.25
2022-09-07T02:47:07.747Z,97839.31
2022-09-07T02:50:18.132Z,97836.09
2022-09-07T02:53:08.246Z,97841.06
2022-09-07T02:55:53.792Z,97838.19
2022-09-07T02:58:37.198Z,97845.88
2022-09-07T03:01:18.104Z,97846.63
2022-09-07T03:04:03.716Z,97841.66
2022-09-07T03:06:42.061Z,97839.78
2022-09-07T03:09:18.304Z,97840.84
2022-09-07T03:11:47.848Z,97836.03
2022-09-07T03:14:19.790Z,97839.47
2022-09-07T03:16:51.296Z,97839.00
2022-09-07T03:19:21.646Z,97839.22
2022-09-07T03:21:50.808Z,97838.69
2022-09-07T03:24:19.595Z,97832.56
2022-09-07T03:26:50.680Z,97837.06
2022-09-07T03:29:19.652Z,97836.03
2022-09-07T03:31:48.972Z,97843.16
2022-09-07T03:34:21.535Z,97842.38
2022-09-07T03:36:50.844Z,97846.53
2022-09-07T03:39:22.756Z,97855.19
2022-09-07T03:41:52.173Z,97842.69
2022-09-07T03:44:20.843Z,97841.88
2022-09-07T03:46:50.557Z,97841.06
2022-09-07T03:49:21.332Z,97841.56
2022-09-07T03:51:50.472Z,97845.22
2022-09-07T03:54:19.753Z,97854.22
2022-09-07T03:56:48.856Z,97846.22
2022-09-07T03:59:17.613Z,97854.88
2022-09-07T04:01:46.790Z,97842.34
2022-09-07T04:04:15.869Z,97848.22
2022-09-07T04:06:47.294Z,97850.84
2022-09-07T04:09:16.626Z,97851.84
2022-09-07T04:11:45.932Z,97852.59
2022-09-07T04:14:15.303Z,97854.22
2022-09-07T04:16:45.594Z,97846.44
2022-09-07T04:19:14.726Z,97850.13
2022-09-07T04:21:47.183Z,97845.91
2022-09-07T04:24:18.681Z,97842.19
2022-09-07T04:26:47.705Z,97845.91
2022-09-07T04:29:17.226Z,97847.97
2022-09-07T04:31:46.388Z,97848.44
2022-09-07T04:34:15.837Z,97844.75
2022-09-07T04:36:44.777Z,97847.91
2022-09-07T04:39:13.930Z,97846.75
2022-09-07T04:41:44.748Z,97849.41
2022-09-07T04:44:16.941Z,97859.28
2022-09-07T04:46:46.063Z,97862.72
2022-09-07T04:49:14.929Z,97860.53
2022-09-07T04:51:44.603Z,97857.09
2022-09-07T04:54:14.338Z,97858.72
2022-09-07T04:56:44.859Z,97856.06
2022-09-07T04:59:13.938Z,97860.81
2022-09-07T05:01:42.772Z,97866.31
2022-09-07T05:04:11.947Z,97878.75
2022-09-07T05:06:40.699Z,97870.59
2022-09-07T05:09:09.495Z,97866.31
2022-09-07T05:11:38.125Z,97863.13
2022-09-07T05:14:08.391Z,97860.47
2022-09-07T05:16:37.110Z,97866.69
2022-09-07T05:19:07.265Z,97865.00
2022-09-07T05:21:36.913Z,97858.69
2022-09-07T05:24:08.023Z,97866.06
2022-09-07T05:26:39.825Z,97873.91
2022-09-07T05:31:59.334Z,97884.28
2022-09-07T05:37:02.869Z,97889.78
2022-09-07T05:39:31.755Z,97890.81
2022-09-07T05:42:00.534Z,97896.38
2022-09-07T05:44:47.383Z,97898.41
2022-09-07T05:47:16.513Z,97901.88
2022-09-07T05:49:45.417Z,97900.84
2022-09-07T05:52:14.551Z,97897.38
2022-09-07T05:54:43.535Z,97903.50
2022-09-07T05:57:14.030Z,97902.91
2022-09-07T05:59:44.852Z,97907.16
2022-09-07T06:02:16.122Z,97899.81
2022-09-07T06:04:45.108Z,97905.88
2022-09-07T06:07:23.211Z,97916.47
2022-09-07T06:12:48.937Z,97918.41
2022-09-07T06:15:19.839Z,97919.00
2022-09-07T06:17:49.204Z,97928.63
2022-09-07T06:20:19.662Z,97926.53
2022-09-07T06:22:48.353Z,97917.31
2022-09-07T06:25:17.499Z,97932.00
2022-09-07T06:27:50.024Z,97928.66
2022-09-07T06:30:20.951Z,97931.41
2022-09-07T06:32:49.638Z,97933.31
2022-09-07T06:35:18.685Z,97927.88
2022-09-07T06:37:47.387Z,97937.53
2022-09-07T06:40:17.226Z,97933.09
2022-09-07T06:42:46.607Z,97935.03
2022-09-07T06:45:15.458Z,97939.41
2022-09-07T06:47:45.674Z,97942.94
2022-09-07T06:50:15.287Z,97938.53
2022-09-07T06:55:33.577Z,97952.97
2022-09-07T06:58:02.273Z,97947.50
2022-09-07T07:00:31.874Z,97956.59
2022-09-07T07:03:02.662Z,97960.59
2022-09-07T07:05:31.939Z,97958.84
2022-09-07T07:08:00.644Z,97958.91
2022-09-07T07:10:29.957Z,97954.50
2022-09-07T07:12:58.903Z,97953.50
2022-09-07T07:15:29.804Z,97954.38
2022-09-07T07:18:09.541Z,97957.91
2022-09-07T07:20:50.062Z,97950.50
2022-09-07T07:23:18.964Z,97946.81
2022-09-07T07:25:48.253Z,97940.53
2022-09-07T07:31:11.309Z,97945.16
2022-09-07T07:33:42.756Z,97944.22
2022-09-07T07:36:15.767Z,97935.50
2022-09-07T07:39:05.091Z,97944.84
2022-09-07T07:44:23.521Z,97951.25
2022-09-07T07:46:52.811Z,97948.34
2022-09-07T07:49:22.118Z,97948.66
2022-09-07T07:54:44.390Z,97952.66
2022-09-07T07:57:13.555Z,97952.47
2022-09-07T07:59:42.782Z,97947.78
2022-09-07T08:02:17.912Z,97953.34
2022-09-07T08:04:47.710Z,97953.09
2022-09-07T08:07:19.541Z,97955.22
2022-09-07T08:09:49.398Z,97957.88
2022-09-07T08:12:20.486Z,97956.03
2022-09-07T08:14:49.792Z,97955.22
2022-09-07T08:17:20.029Z,97958.41
2022-09-07T08:19:48.499Z,97957.88
2022-09-07T08:22:18.990Z,97961.63
2022-09-07T08:24:47.515Z,97964.31
2022-09-07T08:27:20.646Z,97969.09
2022-09-07T08:29:49.125Z,97971.28
2022-09-07T08:32:18.378Z,97975.06
2022-09-07T08:34:48.547Z,97968.94
2022-09-07T08:37:18.582Z,97974.81
2022-09-07T08:39:47.563Z,97972.16
2022-09-07T08:42:42.983Z,97977.97
2022-09-07T08:45:17.571Z,97983.59
2022-09-07T08:47:51.135Z,97981.97
2022-09-07T08:50:25.122Z,97979.41
2022-09-07T08:53:02.684Z,97977.22
2022-09-07T08:55:38.299Z,97976.75
2022-09-07T08:58:32.238Z,97978.91
2022-09-07T09:06:52.569Z,97968.69
2022-09-07T09:09:43.610Z,97971.38
2022-09-07T09:12:26.568Z,97979.66
2022-09-07T09:15:15.191Z,97979.09
2022-09-07T09:17:55.416Z,97981.03
2022-09-07T09:20:32.453Z,97983.19
2022-09-07T09:23:12.341Z,97985.84
2022-09-07T09:25:53.848Z,97981.38
2022-09-07T09:28:24.692Z,97980.34
2022-09-07T09:30:55.323Z,97986.50
2022-09-07T09:33:27.381Z,97979.34
2022-09-07T09:35:59.118Z,97966.09
2022-09-07T09:38:37.273Z,97972.25
2022-09-07T09:41:10.793Z,97964.34
2022-09-07T09:43:46.609Z,97953.16
2022-09-07T09:46:24.731Z,97955.84
2022-09-07T09:49:01.078Z,97946.03
2022-09-07T09:54:33.098Z,97946.88
2022-09-07T09:57:04.344Z,97939.47
2022-09-07T10:05:30.914Z,97920.41
2022-09-07T10:08:00.125Z,97925.22
2022-09-07T10:10:31.478Z,97932.91
2022-09-07T10:13:01.713Z,97932.69
2022-09-07T10:15:41.312Z,97937.25
2022-09-07T10:18:29.194Z,97932.50
2022-09-07T10:21:24.856Z,97935.78
2022-09-07T10:24:00.297Z,97934.75
2022-09-07T10:26:35.648Z,97937.44
2022-09-07T10:29:17.516Z,97938.00
2022-09-07T10:32:24.662Z,97931.41
2022-09-07T10:35:19.091Z,97946.56
2022-09-07T10:38:03.309Z,97951.94
2022-09-07T10:40:42.529Z,97942.09
2022-09-07T10:43:25.359Z,97938.16
2022-09-07T10:52:53.033Z,97931.03
2022-09-07T10:55:32.368Z,97929.16
2022-09-07T10:59:01.422Z,97930.03
2022-09-07T11:01:24.305Z,97925.50
2022-09-07T11:04:46.580Z,97914.88
2022-09-07T11:07:37.535Z,97917.00
2022-09-07T11:10:27.079Z,97909.56
2022-09-07T11:13:02.568Z,97908.50
2022-09-07T11:15:38.137Z,97909.59
2022-09-07T11:18:18.544Z,97912.50
2022-09-07T11:20:55.266Z,97908.00
2022-09-07T11:23:29.960Z,97911.44
2022-09-07T11:26:09.191Z,97911.19
2022-09-07T11:29:28.794Z,97913.84
2022-09-07T11:31:43.692Z,97908.78
2022-09-07T11:34:24.823Z,97906.66
2022-09-07T11:37:03.092Z,97889.88
2022-09-07T11:39:40.631Z,97909.31
2022-09-07T11:45:18.297Z,97901.34
2022-09-07T11:47:54.555Z,97909.06
2022-09-07T11:50:25.556Z,97902.38
2022-09-07T11:52:59.017Z,97910.13
2022-09-07T11:55:34.734Z,97910.69
2022-09-07T11:58:58.999Z,97899.44
2022-09-07T12:01:42.257Z,97887.97
2022-09-07T12:04:36.522Z,97887.16
2022-09-07T12:08:01.953Z,97885.81
2022-09-07T12:11:11.295Z,97891.13
2022-09-07T12:14:20.869Z,97878.84
2022-09-07T12:17:34.843Z,97876.94
2022-09-07T12:20:16.713Z,97876.13
2022-09-07T12:23:28.444Z,97877.50
2022-09-07T12:26:53.722Z,97877.50
2022-09-07T12:29:26.741Z,97871.88
2022-09-07T12:31:58.746Z,97867.03
2022-09-07T12:35:01.219Z,97861.94
2022-09-07T12:37:47.722Z,97857.13
2022-09-07T12:41:01.043Z,97866.22
2022-09-07T12:44:08.396Z,97865.34
2022-09-07T12:46:49.923Z,97862.94
2022-09-07T12:50:10.111Z,97864.78
2022-09-07T12:53:22.794Z,97865.53
2022-09-07T12:56:27.177Z,97858.81
2022-09-07T12:59:21.704Z,97856.38
2022-09-07T13:02:14.160Z,97855.06
2022-09-07T13:05:03.687Z,97853.78
2022-09-07T13:08:30.191Z,97853.47
2022-09-07T13:11:18.887Z,97855.59
2022-09-07T13:14:04.775Z,97841.72
2022-09-07T13:20:06.684Z,97836.00
2022-09-07T13:23:23.835Z,97837.84
2022-09-07T13:26:00.582Z,97838.34
2022-09-07T13:28:55.878Z,97839.41
2022-09-07T13:31:50.709Z,97840.72
2022-09-07T13:34:56.923Z,97853.53
2022-09-07T13:37:29.114Z,97845.81
2022-09-07T13:40:00.073Z,97851.91
2022-09-07T13:42:35.060Z,97847.44
2022-09-07T13:45:10.027Z,97859.41
2022-09-07T13:47:58.790Z,97864.13
2022-09-07T13:50:43.232Z,97861.13
2022-09-07T13:53:43.994Z,97851.13
2022-09-07T13:56:36.213Z,97838.19
2022-09-07T13:59:21.114Z,97826.69
2022-09-07T14:01:52.304Z,97832.25
2022-09-07T14:04:26.888Z,97830.19
2022-09-07T14:07:03.869Z,97839.00
2022-09-07T14:09:33.837Z,97837.41
2022-09-07T14:12:03.253Z,97840.09
2022-09-07T14:14:33.355Z,97829.94
2022-09-07T14:17:08.554Z,97827.84
2022-09-07T14:19:45.844Z,97827.38
2022-09-07T14:22:19.028Z,97817.22
2022-09-07T14:24:51.722Z,97812.44
2022-09-07T14:27:25.444Z,97808.16
2022-09-07T14:29:54.757Z,97805.75
2022-09-07T14:32:27.311Z,97806.22
2022-09-07T14:34:56.689Z,97808.16
2022-09-07T14:37:26.120Z,97807.94
2022-09-07T14:39:56.475Z,97802.56
2022-09-07T14:42:26.818Z,97796.63
2022-09-07T14:45:32.070Z,97796.91
2022-09-07T14:48:13.522Z,97801.25
2022-09-07T14:51:05.504Z,97810.34
2022-09-07T14:53:39.168Z,97804.44
2022-09-07T14:56:12.306Z,97804.50
2022-09-07T14:58:41.100Z,97792.22
2022-09-07T15:04:20.326Z,97801.34
2022-09-07T15:07:04.565Z,97794.94
2022-09-07T15:09:39.377Z,97804.59
2022-09-07T15:12:27.166Z,97811.56
2022-09-07T15:15:13.729Z,97804.91
2022-09-07T15:17:46.259Z,97805.72
2022-09-07T15:20:49.573Z,97808.63
2022-09-07T15:23:20.841Z,97807.34
2022-09-07T15:25:54.135Z,97796.91
2022-09-07T15:34:13.428Z,97798.56
2022-09-07T15:36:48.619Z,97795.59
2022-09-07T15:39:20.504Z,97794.53
2022-09-07T15:41:51.410Z,97796.91
2022-09-07T15:44:25.016Z,97794.25
2022-09-07T15:49:50.030Z,97782.53
2022-09-07T15:52:20.230Z,97778.03
2022-09-07T15:54:48.683Z,97787.91
2022-09-07T16:00:07.739Z,97785.50
2022-09-07T16:05:30.984Z,97788.22
2022-09-07T16:10:55.346Z,97783.13
2022-09-07T16:13:24.840Z,97784.50
2022-09-07T16:15:53.427Z,97785.56
2022-09-07T16:18:22.108Z,97782.38
2022-09-07T16:20:53.780Z,97779.72
2022-09-07T16:23:24.195Z,97779.19
2022-09-07T16:26:02.407Z,97770.66
2022-09-07T16:28:31.879Z,97762.91
2022-09-07T16:31:00.400Z,97762.66
2022-09-07T16:33:35.996Z,97755.69
2022-09-07T16:36:12.079Z,97756.72
2022-09-07T16:38:44.956Z,97754.56
2022-09-07T16:41:17.092Z,97762.03
2022-09-07T16:43:46.207Z,97765.50
2022-09-07T16:46:17.272Z,97760.44
2022-09-07T16:48:45.965Z,97757.78
2022-09-07T16:51:17.665Z,97752.69
2022-09-07T16:53:50.839Z,97754.63
2022-09-07T16:56:21.511Z,97751.41
2022-09-07T16:58:53.312Z,97752.22
2022-09-07T17:01:25.516Z,97746.38
2022-09-07T17:03:54.995Z,97745.03
2022-09-07T17:06:26.126Z,97742.41
2022-09-07T17:08:56.478Z,97740.31
2022-09-07T17:11:26.965Z,97739.28
2022-09-07T17:13:59.046Z,97740.09
2022-09-07T17:16:31.172Z,97744.66
2022-09-07T17:21:52.918Z,97735.91
2022-09-07T17:24:23.227Z,97738.59
2022-09-07T17:26:51.769Z,97736.47
2022-09-07T17:29:20.614Z,97721.28
2022-09-07T17:34:37.970Z,97719.72
2022-09-07T17:37:07.093Z,97722.44
2022-09-07T17:39:38.890Z,97726.69
2022-09-07T17:42:07.841Z,97727.25
2022-09-07T17:44:42.527Z,97725.66
2022-09-07T17:47:11.262Z,97717.13
2022-09-07T17:49:40.591Z,97713.94
2022-09-07T17:52:09.191Z,97724.09
2022-09-07T17:54:42.045Z,97719.84
2022-09-07T17:57:10.784Z,97716.66
2022-09-07T18:02:28.177Z,97718.56
2022-09-07T18:04:57.166Z,97721.75
2022-09-07T18:07:26.198Z,97720.69
2022-09-07T18:09:56.292Z,97737.47
2022-09-07T18:12:25.071Z,97730.28
2022-09-07T18:14:53.895Z,97735.09
2022-09-07T18:17:22.422Z,97733.25
2022-09-07T18:19:51.097Z,97735.59
2022-09-07T18:22:19.836Z,97738.53
2022-09-07T18:24:49.162Z,97738.00
2022-09-07T18:27:21.113Z,97744.91
2022-09-07T18:29:50.330Z,97744.09
2022-09-07T18:32:18.895Z,97740.41
2022-09-07T18:34:50.612Z,97739.06
2022-09-07T18:37:19.919Z,97726.81
2022-09-07T18:39:48.762Z,97726.81
2022-09-07T18:42:18.888Z,97720.16
2022-09-07T18:47:37.034Z,97724.66
2022-09-07T18:50:07.307Z,97724.94
2022-09-07T18:52:52.131Z,97720.13
2022-09-07T18:55:22.053Z,97723.31
2022-09-07T18:57:52.008Z,97714.25
2022-09-07T19:00:21.067Z,97707.09
2022-09-07T19:02:51.907Z,97707.38
2022-09-07T19:08:09.433Z,97692.72
2022-09-07T19:10:39.487Z,97678.09
2022-09-07T19:13:09.832Z,97679.41
2022-09-07T19:15:38.709Z,97676.75
2022-09-07T19:18:08.855Z,97665.00
2022-09-07T19:20:37.809Z,97664.44
2022-09-07T19:23:07.120Z,97670.84
2022-09-07T19:25:36.268Z,97665.50
2022-09-07T19:28:04.986Z,97673.16
2022-09-07T19:30:37.454Z,97684.31
2022-09-07T19:33:19.811Z,97686.69
2022-09-07T19:35:49.126Z,97684.84
2022-09-07T19:38:18.542Z,97682.19
2022-09-07T19:40:55.541Z,97674.50
2022-09-07T19:43:24.241Z,97671.56
2022-09-07T19:48:23.031Z,97665.38
2022-09-07T19:50:51.519Z,97665.38
2022-09-07T19:53:20.648Z,97666.41
2022-09-07T19:55:49.197Z,97669.59
2022-09-07T19:58:17.683Z,97660.84
2022-09-07T20:00:46.116Z,97661.09
2022-09-07T20:03:14.649Z,97663.22
2022-09-07T20:05:45.154Z,97668.78
2022-09-07T20:08:14.155Z,97664.19
2022-09-07T20:10:42.618Z,97659.41
2022-09-07T20:13:11.080Z,97664.69
2022-09-07T20:15:42.379Z,97659.91
2022-09-07T20:18:12.023Z,97650.31
2022-09-07T20:20:40.480Z,97649.22
2022-09-07T20:23:10.645Z,97640.69
2022-09-07T20:25:39.462Z,97645.38
2022-09-07T20:28:08.464Z,97645.63
2022-09-07T20:30:37.370Z,97631.47
2022-09-07T20:33:05.922Z,97636.78
2022-09-07T20:35:34.441Z,97636.22
2022-09-07T20:38:02.923Z,97634.13
2022-09-07T20:40:33.587Z,97639.38
2022-09-07T20:43:02.104Z,97646.81
2022-09-07T20:45:31.879Z,97639.09
2022-09-07T20:48:01.400Z,97640.41
2022-09-07T20:50:29.832Z,97639.28
2022-09-07T20:52:58.876Z,97655.97
2022-09-07T20:55:27.694Z,97656.16
2022-09-07T20:57:58.029Z,97648.22
2022-09-07T21:00:26.627Z,97647.09
2022-09-07T21:02:55.062Z,97647.84
2022-09-07T21:05:24.301Z,97646.69
2022-09-07T21:07:52.888Z,97637.41
2022-09-07T21:10:21.914Z,97643.25
2022-09-07T21:12:50.451Z,97642.75
2022-09-07T21:15:21.268Z,97643.69
2022-09-07T21:17:49.778Z,97657.44
2022-09-07T21:20:18.614Z,97663.75
2022-09-07T21:22:50.757Z,97667.16
2022-09-07T21:25:19.722Z,97665.88
2022-09-07T21:27:50.901Z,97664.31
2022-09-07T21:30:21.379Z,97658.75
2022-09-07T21:32:52.367Z,97660.88
2022-09-07T21:35:22.866Z,97660.31
2022-09-07T21:37:51.469Z,97655.81
2022-09-07T21:40:20.628Z,97674.06
2022-09-07T21:42:49.476Z,97671.09
2022-09-07T21:45:18.443Z,97666.56
2022-09-07T21:47:48.409Z,97667.94
2022-09-07T21:50:17.118Z,97666.84
2022-09-07T21:52:45.738Z,97660.97
2022-09-07T21:55:14.928Z,97670.47
2022-09-07T21:57:44.225Z,97663.31
2022-09-07T22:00:14.379Z,97651.88
2022-09-07T22:02:43.858Z,97654.47
2022-09-07T22:05:14.344Z,97642.19
2022-09-07T22:07:42.961Z,97636.38
2022-09-07T22:10:11.823Z,97635.78
2022-09-07T22:12:40.409Z,97632.84
2022-09-07T22:15:09.920Z,97636.56
2022-09-07T22:17:39.891Z,97630.47
2022-09-07T22:20:13.872Z,97633.66
2022-09-07T22:22:43.084Z,97626.19
2022-09-07T22:25:11.927Z,97621.16
2022-09-07T22:27:41.093Z,97622.94
2022-09-07T22:30:13.000Z,97619.19
2022-09-07T22:32:46.882Z,97609.31
2022-09-07T22:35:17.728Z,97602.41
2022-09-07T22:37:46.533Z,97595.78
2022-09-07T22:40:15.398Z,97586.22
2022-09-07T22:42:44.072Z,97583.03
2022-09-07T22:45:12.808Z,97584.63
2022-09-07T22:47:42.263Z,97576.19
2022-09-07T22:50:12.886Z,97574.09
2022-09-07T22:52:42.912Z,97568.22
2022-09-07T22:55:12.517Z,97556.06
2022-09-07T22:57:41.118Z,97561.78
2022-09-07T23:00:13.628Z,97579.72
2022-09-07T23:02:42.693Z,97586.00
2022-09-07T23:05:12.680Z,97587.09
2022-09-07T23:07:45.246Z,97589.00
2022-09-07T23:10:13.841Z,97589.31
2022-09-07T23:12:42.684Z,97591.72
2022-09-07T23:15:12.019Z,97597.75
2022-09-07T23:17:41.061Z,97600.38
2022-09-07T23:20:10.928Z,97595.59
2022-09-07T23:22:39.537Z,97600.09
2022-09-07T23:25:11.367Z,97595.59
2022-09-07T23:27:40.371Z,97586.63
2022-09-07T23:30:10.670Z,97573.91
2022-09-07T23:32:40.184Z,97572.31
2022-09-07T23:35:14.905Z,97574.91
2022-09-07T23:37:45.680Z,97571.16
2022-09-07T23:40:15.909Z,97554.78
2022-09-07T23:42:45.179Z,97547.41
2022-09-07T23:45:14.908Z,97551.81
2022-09-07T23:47:44.113Z,97539.88
2022-09-07T23:50:12.896Z,97537.75
2022-09-07T23:52:41.485Z,97517.09
2022-09-07T23:55:11.504Z,97512.91
2022-09-07T23:57:42.773Z,97507.09
